Time;durP1;ratioP1;P1;durP2;ratioP2;P2;SDS_P1;SDS_P2;PMS_P1;PMS_P2;Temp;Humidity;BMP_temperature;BMP_pressure;BME280_temperature;BME280_humidity;BME280_pressure;Samples;Min_cycle;Max_cycle;Signal;HPM_P1;HPM_P2
2021/12/10 00:00:32;;;;;;;10.23;8.13;;;-10.80;93.40;;;;;;5036172;28;20057;-79
2021/12/10 00:02:59;;;;;;;11.75;5.97;;;-10.70;93.40;;;;;;5036044;28;20624;-77
2021/12/10 00:05:33;;;;;;;12.77;6.70;;;-10.70;93.40;;;;;;5035923;28;20427;-78
2021/12/10 00:08:00;;;;;;;16.75;8.98;;;-10.70;93.40;;;;;;5036100;28;20400;-78
2021/12/10 00:10:31;;;;;;;10.77;4.68;;;-10.70;93.40;;;;;;5036241;28;20501;-78
2021/12/10 00:12:59;;;;;;;8.98;6.32;;;-10.70;93.50;;;;;;5036418;28;20410;-77
2021/12/10 00:15:25;;;;;;;;;;;-10.70;93.40;;;;;;5018463;28;20068;-80
2021/12/10 00:17:53;;;;;;;6.78;4.78;;;-10.70;93.40;;;;;;5036026;28;20273;-79
2021/12/10 00:20:24;;;;;;;12.68;6.78;;;-10.80;93.30;;;;;;5017820;28;20018;-77
2021/12/10 00:22:58;;;;;;;11.98;6.22;;;-10.80;93.30;;;;;;5036008;28;20510;-78
2021/12/10 00:25:37;;;;;;;11.13;6.55;;;-10.90;93.30;;;;;;5035784;28;20387;-76
2021/12/10 00:28:14;;;;;;;7.20;4.45;;;-10.90;93.30;;;;;;5035868;28;20382;-76
2021/12/10 00:30:56;;;;;;;10.55;4.72;;;-11.00;93.30;;;;;;5036352;28;20044;-77
2021/12/10 00:33:24;;;;;;;12.23;6.45;;;-11.00;93.40;;;;;;5036522;28;20044;-76
2021/12/10 00:35:53;;;;;;;11.27;6.68;;;-11.10;93.40;;;;;;5001861;28;20026;-77
2021/12/10 00:38:19;;;;;;;13.38;7.10;;;-11.10;93.50;;;;;;5035667;28;20081;-76
2021/12/10 00:40:45;;;;;;;11.38;7.00;;;-11.10;93.60;;;;;;5030099;28;20057;-76
2021/12/10 00:43:11;;;;;;;12.85;8.02;;;-11.10;93.60;;;;;;5025840;28;20056;-79
2021/12/10 00:45:37;;;;;;;11.50;7.73;;;-11.10;93.60;;;;;;5034353;28;20036;-80
2021/12/10 00:48:03;;;;;;;5.80;2.83;;;-11.10;93.60;;;;;;5034354;28;20100;-81
2021/12/10 00:50:40;;;;;;;12.48;6.38;;;-11.10;93.60;;;;;;5035247;28;20032;-80
2021/12/10 00:53:07;;;;;;;12.07;6.63;;;-11.20;93.70;;;;;;5035178;28;20470;-78
2021/12/10 00:55:33;;;;;;;12.35;8.68;;;-11.20;93.60;;;;;;5035103;28;20079;-78
2021/12/10 00:58:00;;;;;;;14.20;7.13;;;-11.20;93.60;;;;;;5035305;28;20025;-78
2021/12/10 01:00:33;;;;;;;9.90;6.28;;;-11.20;93.70;;;;;;5035451;28;20109;-77
2021/12/10 01:03:00;;;;;;;11.30;6.47;;;-11.20;93.90;;;;;;5017563;28;20079;-78
2021/12/10 01:05:27;;;;;;;12.75;7.93;;;-11.30;93.60;;;;;;5035039;28;20029;-79
2021/12/10 01:07:53;;;;;;;12.75;7.55;;;-11.30;93.60;;;;;;5035009;28;20082;-79
2021/12/10 01:10:24;;;;;;;10.38;6.55;;;-11.30;94.00;;;;;;5035555;28;20487;-80
2021/12/10 01:12:53;;;;;;;11.98;7.47;;;-11.30;93.80;;;;;;5036549;28;20382;-78
2021/12/10 01:24:52;;;;;;;18.20;8.20;;;-11.30;93.80;;;;;;5032054;28;20061;-79
2021/12/10 01:27:25;;;;;;;9.20;7.57;;;-11.40;93.80;;;;;;5036682;28;20041;-80
2021/12/10 01:29:56;;;;;;;14.80;10.05;;;-11.30;93.90;;;;;;5035643;28;20104;-79
2021/12/10 01:32:26;;;;;;;16.45;7.97;;;-11.40;93.90;;;;;;5034863;28;20109;-80
2021/12/10 01:34:53;;;;;;;15.13;7.90;;;-11.30;94.00;;;;;;5034432;28;20036;-80
2021/12/10 01:37:19;;;;;;;15.48;10.38;;;-11.40;94.00;;;;;;5034509;28;20025;-81
2021/12/10 01:39:45;;;;;;;13.75;9.50;;;-11.30;94.00;;;;;;5034387;28;20030;-80
2021/12/10 01:42:42;;;;;;;14.20;9.18;;;-11.30;94.00;;;;;;5034421;28;20025;-80
2021/12/10 01:45:20;;;;;;;11.20;6.90;;;-11.40;93.90;;;;;;4992409;28;20540;-81
2021/12/10 01:47:50;;;;;;;19.17;10.38;;;-11.40;93.90;;;;;;5034024;28;20017;-78
2021/12/10 01:50:15;;;;;;;15.95;9.45;;;-11.40;93.80;;;;;;5034223;28;20033;-79
2021/12/10 01:52:41;;;;;;;20.80;12.40;;;-11.40;93.90;;;;;;5034019;28;20524;-79
2021/12/10 01:55:08;;;;;;;14.45;9.55;;;-11.40;93.90;;;;;;5033740;28;20036;-79
2021/12/10 01:57:38;;;;;;;22.55;11.15;;;-11.40;94.00;;;;;;5033023;28;20479;-80
2021/12/10 02:00:09;;;;;;;19.10;10.73;;;-11.40;94.00;;;;;;5034113;28;20071;-81
2021/12/10 02:02:37;;;;;;;20.70;10.90;;;-11.40;94.10;;;;;;5035058;28;20382;-80
2021/12/10 02:05:06;;;;;;;20.88;11.73;;;-11.40;94.10;;;;;;5033705;28;20043;-78
2021/12/10 02:07:32;;;;;;;23.23;10.32;;;-11.40;94.20;;;;;;5033750;28;20083;-78
2021/12/10 02:09:58;;;;;;;19.70;10.57;;;-11.40;94.20;;;;;;5026924;28;20026;-80
2021/12/10 02:12:24;;;;;;;27.23;8.63;;;-11.40;94.40;;;;;;5026674;28;20048;-79
2021/12/10 02:14:58;;;;;;;20.35;11.95;;;-11.40;94.20;;;;;;5033340;28;20041;-79
2021/12/10 02:17:37;;;;;;;23.10;11.38;;;-11.40;94.20;;;;;;5034134;28;20349;-79
2021/12/10 02:20:19;;;;;;;23.38;14.35;;;-11.40;94.20;;;;;;5033993;28;20032;-79
2021/12/10 02:22:47;;;;;;;26.27;12.93;;;-11.40;94.00;;;;;;5033368;28;20076;-79
2021/12/10 02:25:20;;;;;;;26.35;12.93;;;-11.50;94.00;;;;;;5033454;28;20041;-78
2021/12/10 02:27:46;;;;;;;28.65;13.80;;;-11.40;94.00;;;;;;5033486;28;20029;-78
2021/12/10 02:30:13;;;;;;;25.02;13.98;;;-11.50;94.10;;;;;;5033661;28;20029;-77
2021/12/10 02:32:39;;;;;;;22.67;12.50;;;-11.40;94.10;;;;;;5033089;28;20105;-77
2021/12/10 02:35:07;;;;;;;25.02;12.88;;;-11.50;94.00;;;;;;5033309;28;20021;-76
2021/12/10 02:37:34;;;;;;;26.27;14.38;;;-11.50;94.00;;;;;;5034121;28;20478;-78
2021/12/10 02:40:01;;;;;;;18.40;12.38;;;-11.50;93.90;;;;;;5033418;28;20021;-79
2021/12/10 02:42:27;;;;;;;23.15;15.35;;;-11.50;94.00;;;;;;5033266;28;20029;-77
2021/12/10 02:44:53;;;;;;;25.40;12.02;;;-11.50;94.00;;;;;;5032700;28;20033;-78
2021/12/10 02:47:20;;;;;;;20.50;11.52;;;-11.50;94.00;;;;;;5032954;28;20043;-77
2021/12/10 02:49:46;;;;;;;28.42;13.80;;;-11.50;94.00;;;;;;5014670;28;20032;-78
2021/12/10 02:52:14;;;;;;;24.92;13.15;;;-11.60;93.90;;;;;;5033014;28;20026;-79
2021/12/10 02:54:43;;;;;;;16.42;11.95;;;-11.60;93.90;;;;;;5033142;28;20029;-77
2021/12/10 02:57:13;;;;;;;26.48;12.10;;;-11.70;94.00;;;;;;5011585;28;20383;-77
2021/12/10 02:59:40;;;;;;;30.00;18.88;;;-11.70;94.10;;;;;;5025345;28;20013;-77
2021/12/10 03:02:10;;;;;;;29.77;16.08;;;-11.70;94.10;;;;;;5032947;28;20502;-77
2021/12/10 03:04:36;;;;;;;22.45;12.52;;;-11.80;94.00;;;;;;5033383;28;20029;-80
2021/12/10 03:07:08;;;;;;;32.50;14.18;;;-11.70;94.10;;;;;;5034568;28;20014;-79
2021/12/10 03:09:34;;;;;;;31.17;16.48;;;-11.80;94.10;;;;;;5045395;28;20017;-80
2021/12/10 03:12:00;;;;;;;25.73;11.27;;;-11.80;94.30;;;;;;5042454;28;20026;-79
2021/12/10 03:14:34;;;;;;;26.17;15.15;;;-11.80;94.30;;;;;;5023307;28;20367;-80
2021/12/10 03:17:05;;;;;;;27.15;14.70;;;-11.80;94.40;;;;;;5032989;28;20486;-81
2021/12/10 03:19:32;;;;;;;27.70;13.73;;;-11.80;94.40;;;;;;5032832;28;20532;-80
2021/12/10 03:21:59;;;;;;;25.50;14.02;;;-11.80;94.40;;;;;;5032664;28;20025;-80
2021/12/10 03:24:28;;;;;;;20.70;10.45;;;-11.80;94.50;;;;;;5032051;28;20445;-79
2021/12/10 03:26:57;;;;;;;28.08;14.02;;;-11.80;94.50;;;;;;5030228;28;20049;-80
2021/12/10 03:29:26;;;;;;;33.17;16.35;;;-11.80;94.50;;;;;;5003696;28;20033;-79
2021/12/10 03:31:55;;;;;;;29.13;14.95;;;-11.80;94.60;;;;;;5032425;28;20075;-80
2021/12/10 03:34:21;;;;;;;31.67;15.07;;;-11.80;94.70;;;;;;5032614;28;20017;-81
2021/12/10 03:36:50;;;;;;;32.33;16.08;;;-11.80;94.70;;;;;;5015083;28;20053;-79
2021/12/10 03:39:24;;;;;;;25.70;13.60;;;-11.80;94.70;;;;;;5032831;28;20415;-80
2021/12/10 03:41:50;;;;;;;32.65;14.63;;;-11.80;94.70;;;;;;5022571;28;20018;-79
2021/12/10 03:44:16;;;;;;;30.70;14.57;;;-11.80;94.80;;;;;;5023773;28;20025;-81
2021/12/10 03:46:42;;;;;;;28.88;13.75;;;-11.70;94.80;;;;;;5032574;28;20033;-81
2021/12/10 03:49:08;;;;;;;27.33;11.70;;;-11.70;94.80;;;;;;5032812;28;20483;-82
2021/12/10 03:51:35;;;;;;;34.53;19.50;;;-11.70;94.80;;;;;;5015773;28;20034;-81
2021/12/10 03:54:04;;;;;;;30.90;18.15;;;-11.70;94.80;;;;;;5033507;28;20029;-81
2021/12/10 03:56:32;;;;;;;22.05;12.65;;;-11.70;94.80;;;;;;5033352;28;20083;-80
2021/12/10 03:59:00;;;;;;;18.83;11.93;;;-11.70;94.70;;;;;;5033353;28;20052;-81
2021/12/10 04:01:31;;;;;;;20.40;8.57;;;-11.70;94.60;;;;;;5032471;28;20486;-81
2021/12/10 04:04:00;;;;;;;30.92;15.85;;;-11.70;94.70;;;;;;5032135;28;20068;-78
2021/12/10 04:06:27;;;;;;;21.70;13.05;;;-11.70;94.60;;;;;;5032445;28;20021;-79
2021/12/10 04:08:53;;;;;;;28.73;15.65;;;-11.70;94.60;;;;;;5032350;28;20180;-79
2021/12/10 04:11:20;;;;;;;29.50;16.75;;;-11.70;94.60;;;;;;5032434;28;20128;-80
2021/12/10 04:13:49;;;;;;;31.02;17.13;;;-11.80;94.50;;;;;;5032285;28;20032;-79
2021/12/10 04:16:17;;;;;;;25.88;12.60;;;-11.80;94.60;;;;;;5031789;28;20116;-82
2021/12/10 04:18:45;;;;;;;31.63;16.10;;;-11.80;94.70;;;;;;5032072;28;20029;-80
2021/12/10 04:21:12;;;;;;;16.77;10.77;;;-11.80;94.80;;;;;;5032447;28;20022;-80
2021/12/10 04:23:41;;;;;;;21.60;10.30;;;-11.80;94.80;;;;;;5034034;28;20069;-80
2021/12/10 04:26:08;;;;;;;32.95;12.70;;;-11.80;94.80;;;;;;5032508;28;20343;-82
2021/12/10 04:28:34;;;;;;;28.98;15.02;;;-11.80;94.80;;;;;;5031830;28;20489;-81
2021/12/10 04:31:01;;;;;;;19.88;9.82;;;-11.80;94.80;;;;;;5031537;28;20042;-82
2021/12/10 04:33:27;;;;;;;24.45;14.57;;;-11.90;94.80;;;;;;5032389;28;20076;-82
2021/12/10 04:35:56;;;;;;;26.15;15.00;;;-11.90;94.80;;;;;;5033197;28;20064;-81
2021/12/10 04:38:24;;;;;;;31.45;15.43;;;-11.90;94.80;;;;;;5035613;28;20021;-80
2021/12/10 04:40:51;;;;;;;28.60;15.38;;;-11.90;94.80;;;;;;5036293;28;20041;-80
2021/12/10 04:43:22;;;;;;;27.77;14.38;;;-11.90;94.90;;;;;;5035408;28;20021;-81
2021/12/10 04:45:50;;;;;;;29.92;17.23;;;-11.90;94.90;;;;;;5035254;28;20037;-81
2021/12/10 04:48:16;;;;;;;29.65;16.98;;;-11.90;94.90;;;;;;5036071;28;20097;-82
2021/12/10 04:50:42;;;;;;;28.48;16.67;;;-11.90;95.00;;;;;;5036191;28;20053;-81
2021/12/10 04:53:09;;;;;;;31.92;16.30;;;-11.90;95.10;;;;;;5037072;28;20036;-82
2021/12/10 04:55:36;;;;;;;27.95;16.75;;;-11.90;95.10;;;;;;5048188;28;20017;-81
2021/12/10 04:58:03;;;;;;;30.83;16.63;;;-11.80;95.20;;;;;;5055998;28;20009;-81
2021/12/10 05:00:35;;;;;;;28.95;13.95;;;-11.80;95.30;;;;;;5044116;28;20032;-80
2021/12/10 05:03:04;;;;;;;34.00;15.48;;;-11.80;95.30;;;;;;5007765;28;20092;-81
2021/12/10 05:05:30;;;;;;;31.45;15.23;;;-11.80;95.30;;;;;;5035557;28;20034;-82
2021/12/10 05:07:57;;;;;;;26.88;15.30;;;-11.80;95.30;;;;;;5017646;28;20024;-82
2021/12/10 05:10:23;;;;;;;22.30;12.13;;;-11.70;95.30;;;;;;5034902;28;20026;-81
2021/12/10 05:12:49;;;;;;;28.23;16.58;;;-11.80;95.30;;;;;;5035703;28;20109;-82
2021/12/10 05:15:20;;;;;;;28.70;10.55;;;-11.80;95.20;;;;;;5036183;28;20076;-82
2021/12/10 05:17:48;;;;;;;31.02;15.27;;;-11.70;95.30;;;;;;5036191;28;20048;-82
2021/12/10 05:20:27;;;;;;;24.42;14.40;;;-11.80;95.30;;;;;;5035325;28;20075;-82
2021/12/10 05:22:54;;;;;;;27.27;17.90;;;-11.70;95.30;;;;;;5034778;28;20141;-82
2021/12/10 05:25:20;;;;;;;23.10;12.70;;;-11.70;95.30;;;;;;5003917;28;20517;-82
2021/12/10 05:27:47;;;;;;;24.23;11.02;;;-11.70;95.20;;;;;;5029162;28;20109;-81
2021/12/10 05:30:17;;;;;;;30.15;15.07;;;-11.70;95.00;;;;;;5026874;28;20026;-82
2021/12/10 05:32:43;;;;;;;27.08;13.93;;;-11.80;94.90;;;;;;5034447;28;20112;-80
2021/12/10 05:35:09;;;;;;;27.92;12.82;;;-11.80;94.80;;;;;;5033811;28;20078;-80
2021/12/10 05:37:35;;;;;;;23.48;11.55;;;-11.90;94.80;;;;;;5034466;28;20112;-81
2021/12/10 05:40:02;;;;;;;24.35;12.68;;;-11.90;94.80;;;;;;5033993;28;20088;-80
2021/12/10 05:42:28;;;;;;;29.95;14.10;;;-11.90;94.80;;;;;;5033985;28;20053;-82
2021/12/10 05:44:54;;;;;;;18.38;10.55;;;-11.90;94.90;;;;;;5016159;28;20069;-81
2021/12/10 05:47:20;;;;;;;27.33;12.05;;;-11.90;95.00;;;;;;5033124;28;20021;-80
2021/12/10 05:49:46;;;;;;;22.35;11.98;;;-11.90;95.10;;;;;;5034662;28;20040;-82
2021/12/10 05:52:14;;;;;;;29.23;13.30;;;-11.80;95.20;;;;;;5034407;28;20083;-80
2021/12/10 05:54:40;;;;;;;26.63;13.18;;;-11.80;95.20;;;;;;5033944;28;20074;-83
2021/12/10 05:57:06;;;;;;;23.45;12.70;;;-11.80;95.20;;;;;;5033815;28;20022;-82
2021/12/10 05:59:32;;;;;;;16.02;10.77;;;-11.70;95.30;;;;;;5034626;28;20362;-82
2021/12/10 06:01:58;;;;;;;28.10;13.75;;;-11.70;95.30;;;;;;5017239;28;20032;-80
2021/12/10 06:04:27;;;;;;;30.08;17.65;;;-11.70;95.20;;;;;;5034033;28;20033;-82
2021/12/10 06:06:54;;;;;;;35.50;14.65;;;-11.70;95.20;;;;;;5033691;28;20022;-81
2021/12/10 06:09:21;;;;;;;24.70;15.40;;;-11.70;95.10;;;;;;5032392;28;20025;-82
2021/12/10 06:11:47;;;;;;;28.20;14.80;;;-11.60;95.10;;;;;;5021131;28;20022;-82
2021/12/10 06:14:13;;;;;;;18.70;10.38;;;-11.60;95.10;;;;;;5024007;28;20088;-80
2021/12/10 06:16:40;;;;;;;26.27;13.43;;;-11.60;95.10;;;;;;5033040;28;20033;-81
2021/12/10 06:19:07;;;;;;;13.20;8.68;;;-11.60;95.10;;;;;;5015466;28;20071;-83
2021/12/10 06:21:37;;;;;;;13.10;8.55;;;-11.50;95.10;;;;;;5033965;28;20448;-81
2021/12/10 06:24:05;;;;;;;28.58;14.27;;;-11.50;95.00;;;;;;5033099;28;20033;-83
2021/12/10 06:26:31;;;;;;;10.40;7.78;;;-11.60;94.80;;;;;;5033597;28;20067;-84
2021/12/10 06:28:59;;;;;;;24.70;14.63;;;-11.50;94.70;;;;;;5022675;28;20032;-82
2021/12/10 06:31:26;;;;;;;21.17;8.52;;;-11.60;94.60;;;;;;5034437;28;20017;-81
2021/12/10 06:33:53;;;;;;;32.17;16.10;;;-11.60;94.50;;;;;;5039238;28;20060;-81
2021/12/10 06:36:20;;;;;;;26.95;13.15;;;-11.60;94.40;;;;;;5034681;28;20036;-81
2021/12/10 06:38:47;;;;;;;8.55;6.10;;;-11.60;94.30;;;;;;5033000;28;20375;-81
2021/12/10 06:41:14;;;;;;;16.50;10.75;;;-11.60;94.30;;;;;;5030372;28;20136;-80
2021/12/10 06:43:40;;;;;;;26.00;16.45;;;-11.60;94.30;;;;;;5031491;28;20041;-79
2021/12/10 06:46:07;;;;;;;24.55;15.45;;;-11.60;94.30;;;;;;5022373;28;20028;-82
2021/12/10 06:48:34;;;;;;;21.70;13.45;;;-11.60;94.30;;;;;;5052422;28;20026;-82
2021/12/10 06:51:05;;;;;;;28.25;14.82;;;-11.60;94.40;;;;;;5034103;28;20068;-82
2021/12/10 06:53:31;;;;;;;42.10;14.50;;;-11.60;94.30;;;;;;5034174;28;20423;-83
2021/12/10 06:55:59;;;;;;;31.80;16.02;;;-11.60;94.30;;;;;;5034637;28;20105;-87
2021/12/10 06:58:27;;;;;;;32.83;18.60;;;-11.60;94.30;;;;;;5035085;28;20466;-80
2021/12/10 07:00:58;;;;;;;20.55;12.13;;;-11.60;94.20;;;;;;5033291;28;20021;-79
2021/12/10 07:03:26;;;;;;;27.38;14.75;;;-11.50;94.10;;;;;;5033388;28;20067;-82
2021/12/10 07:05:54;;;;;;;31.50;17.85;;;-11.50;94.10;;;;;;5033384;28;20454;-81
2021/12/10 07:08:22;;;;;;;31.02;14.55;;;-11.50;94.10;;;;;;5033167;28;20032;-80
2021/12/10 07:10:48;;;;;;;31.50;19.88;;;-11.50;94.00;;;;;;5032760;28;20025;-81
2021/12/10 07:13:15;;;;;;;6.53;5.25;;;-11.50;93.90;;;;;;5015027;28;20030;-80
2021/12/10 07:15:45;;;;;;;28.25;13.68;;;-11.60;93.90;;;;;;5033171;28;20511;-82
2021/12/10 07:18:12;;;;;;;26.75;13.57;;;-11.50;94.00;;;;;;5033345;28;20434;-81
2021/12/10 07:20:39;;;;;;;33.60;15.48;;;-11.50;94.00;;;;;;5032590;28;20364;-82
2021/12/10 07:23:05;;;;;;;27.65;13.05;;;-11.50;94.00;;;;;;5032730;28;20033;-81
2021/12/10 07:25:31;;;;;;;27.55;15.48;;;-11.50;94.00;;;;;;5032360;28;20164;-81
2021/12/10 07:27:57;;;;;;;23.83;14.48;;;-11.50;94.00;;;;;;5033563;28;20026;-80
2021/12/10 07:30:26;;;;;;;27.92;13.15;;;-11.40;93.90;;;;;;5033289;28;20029;-80
2021/12/10 07:32:51;;;;;;;23.33;13.02;;;-11.40;93.90;;;;;;5015097;28;20475;-82
2021/12/10 07:35:18;;;;;;;23.10;14.13;;;-11.40;94.00;;;;;;5032700;28;20075;-80
2021/12/10 07:37:44;;;;;;;24.65;12.95;;;-11.30;94.10;;;;;;5033093;28;20017;-81
2021/12/10 07:40:15;;;;;;;26.02;14.80;;;-11.30;94.00;;;;;;5016245;28;20036;-79
2021/12/10 07:42:41;;;;;;;26.38;12.57;;;-11.30;93.90;;;;;;5033357;28;20013;-81
2021/12/10 07:45:09;;;;;;;22.80;12.70;;;-11.20;93.90;;;;;;5032540;28;20505;-82
2021/12/10 07:47:37;;;;;;;29.08;11.43;;;-11.10;93.90;;;;;;5014733;28;20033;-81
2021/12/10 07:50:17;;;;;;;19.17;11.23;;;-11.10;93.70;;;;;;5014608;28;20116;-81
2021/12/10 07:52:45;;;;;;;17.77;9.68;;;-11.00;93.70;;;;;;5032599;28;20022;-82
2021/12/10 07:55:15;;;;;;;23.55;14.85;;;-10.90;93.50;;;;;;5032300;28;20495;-81
2021/12/10 07:57:42;;;;;;;24.75;13.07;;;-10.80;93.70;;;;;;5032376;28;20029;-81
2021/12/10 08:00:12;;;;;;;23.27;11.48;;;-10.40;94.50;;;;;;5032756;28;20036;-80
2021/12/10 08:02:38;;;;;;;21.02;12.23;;;-10.00;95.20;;;;;;5032444;28;20029;-79
2021/12/10 08:05:05;;;;;;;20.95;12.00;;;-9.50;95.10;;;;;;5032293;28;20030;-80
2021/12/10 08:07:31;;;;;;;16.88;10.73;;;-9.00;94.80;;;;;;5032456;28;20017;-81
2021/12/10 08:09:57;;;;;;;20.20;11.70;;;-8.50;94.70;;;;;;5032132;28;20040;-80
2021/12/10 08:12:23;;;;;;;14.35;9.95;;;-8.10;93.70;;;;;;5036087;28;20025;-82
2021/12/10 08:14:52;;;;;;;17.85;10.55;;;-7.70;93.10;;;;;;5035639;28;20050;-80
2021/12/10 08:17:20;;;;;;;17.23;9.88;;;-7.30;93.00;;;;;;5036098;28;20386;-81
2021/12/10 08:19:46;;;;;;;;;;;-6.90;92.00;;;;;;5036277;28;20352;-80
2021/12/10 08:22:12;;;;;;;17.83;10.30;;;-6.60;91.80;;;;;;5018087;28;20046;-80
2021/12/10 08:24:38;;;;;;;20.35;10.98;;;-6.40;91.30;;;;;;5036307;28;20469;-80
2021/12/10 08:27:04;;;;;;;16.90;11.50;;;-6.10;90.50;;;;;;5036191;28;20117;-81
2021/12/10 08:29:30;;;;;;;18.08;12.05;;;-6.00;88.70;;;;;;5018502;28;20026;-81
2021/12/10 08:31:55;;;;;;;16.15;10.60;;;-5.90;86.80;;;;;;5035615;28;20116;-80
2021/12/10 08:34:21;;;;;;;20.83;11.20;;;-5.80;86.50;;;;;;5036896;28;20049;-82
2021/12/10 08:36:47;;;;;;;18.17;11.60;;;-5.90;85.10;;;;;;5046338;28;20021;-81
2021/12/10 08:39:15;;;;;;;17.33;9.82;;;-6.00;83.20;;;;;;5048187;28;20033;-80
2021/12/10 08:41:41;;;;;;;18.90;11.75;;;-6.10;81.90;;;;;;5035860;28;20028;-80
2021/12/10 08:44:09;;;;;;;18.27;13.43;;;-6.20;81.60;;;;;;5035800;28;20052;-81
2021/12/10 08:46:37;;;;;;;13.93;10.48;;;-6.40;80.50;;;;;;5035659;28;20036;-80
2021/12/10 08:49:04;;;;;;;17.10;10.98;;;-6.60;79.80;;;;;;5035446;28;20467;-80
2021/12/10 08:51:35;;;;;;;23.35;10.27;;;-6.70;79.40;;;;;;5017390;28;20083;-83
2021/12/10 08:54:01;;;;;;;17.73;10.27;;;-6.90;80.00;;;;;;5018229;28;20025;-82
2021/12/10 08:56:28;;;;;;;25.02;11.35;;;-7.10;80.40;;;;;;5035380;28;20522;-81
2021/12/10 08:58:54;;;;;;;17.88;12.05;;;-7.10;81.20;;;;;;5035150;28;20109;-80
2021/12/10 09:01:23;;;;;;;20.60;11.77;;;-7.20;79.60;;;;;;5035489;28;20028;-82
2021/12/10 09:03:53;;;;;;;17.58;10.73;;;-7.10;80.30;;;;;;5035134;28;20036;-82
2021/12/10 09:06:24;;;;;;;21.23;10.80;;;-7.00;80.50;;;;;;5017511;28;20410;-82
2021/12/10 09:08:50;;;;;;;15.63;10.57;;;-7.00;80.10;;;;;;5035086;28;20053;-80
2021/12/10 09:11:16;;;;;;;16.80;11.07;;;-7.10;78.50;;;;;;5035595;28;20494;-80
2021/12/10 09:13:45;;;;;;;20.13;10.57;;;-7.20;78.80;;;;;;5017013;28;20517;-79
2021/12/10 09:16:20;;;;;;;25.15;13.50;;;-7.20;79.20;;;;;;5034865;28;20168;-81
2021/12/10 09:18:54;;;;;;;18.73;12.18;;;-7.30;78.40;;;;;;5035492;28;20422;-80
2021/12/10 09:21:20;;;;;;;15.77;7.00;;;-7.20;81.00;;;;;;5017433;28;20363;-81
2021/12/10 09:23:47;;;;;;;15.63;9.88;;;-7.00;81.30;;;;;;5015954;28;20029;-81
2021/12/10 09:26:16;;;;;;;16.60;10.18;;;-7.10;79.10;;;;;;5017348;28;20045;-82
2021/12/10 09:28:44;;;;;;;13.50;10.15;;;-7.40;78.90;;;;;;5034751;28;20064;-80
2021/12/10 09:31:14;;;;;;;18.00;9.82;;;-7.60;79.60;;;;;;5034688;28;20383;-80
2021/12/10 09:33:42;;;;;;;17.52;8.90;;;-7.80;80.40;;;;;;5034418;28;20053;-80
2021/12/10 09:36:09;;;;;;;15.82;9.75;;;-7.90;81.10;;;;;;5034198;28;20021;-80
2021/12/10 09:38:40;;;;;;;13.35;10.38;;;-8.10;81.50;;;;;;5034817;28;20426;-81
2021/12/10 09:41:09;;;;;;;20.80;8.80;;;-8.20;82.20;;;;;;5034818;28;20041;-80
2021/12/10 09:43:36;;;;;;;12.40;7.45;;;-8.20;82.50;;;;;;5017199;28;20083;-81
2021/12/10 09:46:03;;;;;;;16.48;9.40;;;-8.40;82.80;;;;;;5034617;28;20504;-80
2021/12/10 09:48:29;;;;;;;14.98;9.40;;;-8.50;83.30;;;;;;5034157;28;20049;-80
2021/12/10 09:50:57;;;;;;;13.48;6.63;;;-8.60;83.50;;;;;;5034399;28;20068;-80
2021/12/10 09:53:26;;;;;;;16.58;9.80;;;-8.70;83.90;;;;;;5033501;28;20025;-81
2021/12/10 09:55:53;;;;;;;18.70;11.88;;;-8.70;84.50;;;;;;5033715;28;20116;-82
2021/12/10 09:58:23;;;;;;;16.90;10.80;;;-8.70;84.80;;;;;;5033786;28;20441;-82
2021/12/10 10:01:18;;;;;;;12.60;9.98;;;-8.50;85.80;;;;;;5034209;28;20363;-80
2021/12/10 10:03:47;;;;;;;17.63;9.25;;;-7.90;88.00;;;;;;5019347;28;20088;-80
2021/12/10 10:06:14;;;;;;;18.30;10.88;;;-7.30;87.00;;;;;;5034100;28;20022;-79
2021/12/10 10:08:40;;;;;;;17.67;9.57;;;-6.60;86.70;;;;;;5035539;28;20415;-80
2021/12/10 10:11:34;;;;;;;18.23;10.73;;;-5.80;82.50;;;;;;5034415;28;20041;-80
2021/12/10 10:14:06;;;;;;;15.93;12.40;;;-5.10;78.00;;;;;;5004253;28;20117;-80
2021/12/10 10:16:35;;;;;;;17.60;10.65;;;-4.50;78.40;;;;;;5033401;28;20036;-81
2021/12/10 10:19:01;;;;;;;17.85;10.75;;;-4.20;75.60;;;;;;5034166;28;20108;-82
2021/12/10 10:21:34;;;;;;;18.60;10.38;;;-4.00;73.30;;;;;;5016216;28;20107;-81
2021/12/10 10:24:04;;;;;;;16.27;10.43;;;-4.00;71.50;;;;;;5033903;28;20029;-81
2021/12/10 10:26:37;;;;;;;15.20;9.20;;;-4.40;70.10;;;;;;5035264;28;20026;-79
2021/12/10 10:29:08;;;;;;;20.52;10.77;;;-4.90;70.60;;;;;;5049483;28;20048;-81
2021/12/10 10:31:37;;;;;;;22.60;12.27;;;-5.40;71.70;;;;;;5045623;28;20029;-80
2021/12/10 10:34:04;;;;;;;14.77;9.10;;;-5.90;73.00;;;;;;5034705;28;20095;-81
2021/12/10 10:36:32;;;;;;;18.85;10.68;;;-6.30;72.90;;;;;;5033650;28;20017;-81
2021/12/10 10:39:14;;;;;;;23.85;11.00;;;-6.70;73.60;;;;;;5033763;28;20450;-82
2021/12/10 10:41:45;;;;;;;18.38;10.40;;;-7.10;74.90;;;;;;5033119;28;20025;-81
2021/12/10 10:44:11;;;;;;;20.35;10.57;;;-7.40;76.10;;;;;;5032669;28;20069;-82
2021/12/10 10:46:37;;;;;;;19.65;9.77;;;-7.60;77.20;;;;;;5015916;28;20536;-81
2021/12/10 10:49:05;;;;;;;16.13;10.65;;;-7.70;78.20;;;;;;5032785;28;20112;-80
2021/12/10 10:51:37;;;;;;;23.10;13.50;;;-7.80;79.10;;;;;;5033090;28;20022;-82
2021/12/10 10:54:09;;;;;;;20.35;10.15;;;-7.90;79.60;;;;;;5033017;28;20033;-81
2021/12/10 10:56:42;;;;;;;18.13;10.15;;;-7.90;80.20;;;;;;5015742;28;20028;-81
2021/12/10 10:59:17;;;;;;;17.10;9.95;;;-8.00;80.70;;;;;;5033815;28;20053;-81
2021/12/10 11:01:57;;;;;;;17.88;12.05;;;-8.00;81.00;;;;;;5015319;28;20029;-81
2021/12/10 11:04:28;;;;;;;19.13;11.63;;;-8.00;81.40;;;;;;5032586;28;20072;-81
2021/12/10 11:07:02;;;;;;;18.67;10.32;;;-8.10;81.50;;;;;;5014948;28;20028;-82
2021/12/10 11:09:30;;;;;;;16.58;11.07;;;-8.10;81.80;;;;;;5032614;28;20021;-82
2021/12/10 11:12:03;;;;;;;19.73;10.98;;;-8.20;81.70;;;;;;5032328;28;20026;-81
2021/12/10 11:14:37;;;;;;;17.77;11.13;;;-8.20;81.70;;;;;;5032575;28;20059;-83
2021/12/10 11:17:20;;;;;;;20.05;11.02;;;-8.30;82.10;;;;;;4998230;28;20390;-80
2021/12/10 11:19:52;;;;;;;17.55;10.15;;;-8.30;82.70;;;;;;5033321;28;20099;-82
2021/12/10 11:22:18;;;;;;;18.25;11.52;;;-8.20;83.20;;;;;;5034041;28;20034;-81
2021/12/10 11:24:51;;;;;;;19.43;12.10;;;-8.30;82.90;;;;;;5032630;28;20395;-82
2021/12/10 11:27:17;;;;;;;21.90;12.00;;;-8.30;83.10;;;;;;5032857;28;20254;-81
2021/12/10 11:29:51;;;;;;;20.45;11.13;;;-8.40;83.00;;;;;;5032809;28;20037;-82
2021/12/10 11:32:36;;;;;;;20.58;11.18;;;-8.40;83.30;;;;;;5033102;28;20391;-81
2021/12/10 11:35:20;;;;;;;26.00;13.15;;;-8.50;83.90;;;;;;5033434;28;20368;-81
2021/12/10 11:37:58;;;;;;;16.55;9.88;;;-8.50;84.00;;;;;;5032850;28;20116;-81
2021/12/10 11:40:27;;;;;;;19.23;10.40;;;-8.50;84.30;;;;;;5014674;28;20056;-82
2021/12/10 11:43:01;;;;;;;17.33;9.95;;;-8.60;84.50;;;;;;5014903;28;20053;-82
2021/12/10 11:45:41;;;;;;;17.35;9.77;;;-8.60;84.70;;;;;;5015832;28;20071;-81
2021/12/10 11:48:12;;;;;;;24.30;11.80;;;-8.60;84.80;;;;;;5037587;28;20100;-81
2021/12/10 11:50:44;;;;;;;18.40;9.32;;;-8.60;85.00;;;;;;5037668;28;20044;-81
2021/12/10 11:53:17;;;;;;;14.70;9.70;;;-8.70;84.80;;;;;;5037474;28;20022;-83
2021/12/10 11:56:08;;;;;;;18.83;10.60;;;-8.70;84.80;;;;;;5036719;28;20418;-82
2021/12/10 11:58:34;;;;;;;20.35;10.68;;;-8.80;84.90;;;;;;5036684;28;20075;-81
2021/12/10 12:01:00;;;;;;;16.92;11.02;;;-8.90;85.00;;;;;;5036470;28;20569;-82
2021/12/10 12:03:34;;;;;;;20.77;12.18;;;-8.90;85.30;;;;;;5037210;28;20104;-81
2021/12/10 12:06:01;;;;;;;15.52;9.90;;;-8.90;85.60;;;;;;5036415;28;20037;-82
2021/12/10 12:08:28;;;;;;;17.52;9.38;;;-9.00;85.60;;;;;;5018542;28;20017;-82
2021/12/10 12:10:59;;;;;;;22.48;14.77;;;-9.10;85.50;;;;;;5036505;28;20035;-81
2021/12/10 12:13:35;;;;;;;15.57;8.27;;;-9.10;85.90;;;;;;5036973;28;20030;-81
2021/12/10 12:16:06;;;;;;;20.90;11.88;;;-9.30;86.20;;;;;;5036495;28;20049;-82
2021/12/10 12:18:53;;;;;;;26.27;14.85;;;-9.30;86.70;;;;;;5037753;28;20029;-83
2021/12/10 12:27:08;;;;;;;21.98;11.20;;;-9.40;87.70;;;;;;5036899;28;20106;-81
2021/12/10 12:29:36;;;;;;;29.63;14.45;;;-9.50;87.90;;;;;;5035963;28;20057;-81
2021/12/10 12:32:12;;;;;;;25.52;13.30;;;-9.60;88.00;;;;;;5035890;28;20025;-81
2021/12/10 12:34:40;;;;;;;20.77;14.35;;;-9.50;88.30;;;;;;5018723;28;20025;-83
2021/12/10 12:37:07;;;;;;;;;;;-9.50;88.40;;;;;;5018852;28;20075;-81
2021/12/10 12:39:54;;;;;;;22.63;14.00;;;-9.60;88.50;;;;;;5035960;28;20308;-81
2021/12/10 12:42:20;;;;;;;27.20;15.63;;;-9.60;88.50;;;;;;5001363;28;20029;-80
2021/12/10 12:44:50;;;;;;;37.45;16.17;;;-9.60;88.70;;;;;;5035191;28;20061;-81
2021/12/10 12:47:17;;;;;;;26.90;17.48;;;-9.70;89.00;;;;;;5035459;28;20030;-81
2021/12/10 12:49:49;;;;;;;29.20;14.18;;;-9.70;89.30;;;;;;5035657;28;20029;-80